Time;durP1;ratioP1;P1;durP2;ratioP2;P2;SDS_P1;SDS_P2;PMS_P1;PMS_P2;Temp;Humidity;BMP_temperature;BMP_pressure;BME280_temperature;BME280_humidity;BME280_pressure;Samples;Min_cycle;Max_cycle;Signal;HPM_P1;HPM_P2
2023/04/08 00:00:34;;;;;;;25.27;14.40;;;7.90;98.80;;;;;;4988477;28;20498;-71
2023/04/08 00:03:01;;;;;;;19.92;15.60;;;7.90;99.00;;;;;;4972112;28;20136;-70
2023/04/08 00:05:29;;;;;;;23.17;14.98;;;7.70;99.50;;;;;;4963046;28;20465;-70
2023/04/08 00:07:56;;;;;;;23.33;14.95;;;7.80;99.90;;;;;;4988701;28;20426;-70
2023/04/08 00:10:25;;;;;;;19.83;14.63;;;7.80;99.80;;;;;;4956459;28;20031;-71
2023/04/08 00:12:52;;;;;;;22.73;15.50;;;7.90;99.90;;;;;;4990620;28;20100;-72
2023/04/08 00:15:19;;;;;;;23.65;15.35;;;7.90;99.90;;;;;;4988444;28;20049;-70
2023/04/08 00:17:47;;;;;;;21.42;14.70;;;8.00;99.90;;;;;;4986552;28;20046;-70
2023/04/08 00:20:14;;;;;;;20.25;14.60;;;8.00;99.90;;;;;;4966870;28;20074;-71
2023/04/08 00:22:59;;;;;;;18.48;14.45;;;7.80;99.90;;;;;;4989781;28;20046;-71
2023/04/08 00:25:27;;;;;;;19.77;14.48;;;7.70;99.90;;;;;;4970342;28;20121;-71
2023/04/08 00:27:54;;;;;;;21.17;15.50;;;7.70;99.90;;;;;;4986981;28;20042;-69
2023/04/08 00:30:22;;;;;;;21.85;14.77;;;7.70;99.90;;;;;;4955005;28;20065;-73
2023/04/08 00:32:49;;;;;;;22.58;15.45;;;7.90;99.90;;;;;;4989132;28;20406;-71
2023/04/08 00:35:17;;;;;;;23.50;15.38;;;7.80;99.90;;;;;;4973040;28;20073;-72
2023/04/08 00:37:49;;;;;;;24.13;15.02;;;7.70;99.90;;;;;;4988780;28;20034;-71
2023/04/08 00:40:16;;;;;;;22.45;14.45;;;7.70;99.90;;;;;;4952758;28;20057;-71
2023/04/08 00:42:44;;;;;;;20.40;13.68;;;7.60;99.80;;;;;;4954867;28;20133;-70
2023/04/08 00:45:12;;;;;;;20.20;12.32;;;7.50;99.90;;;;;;4955848;28;20058;-69
2023/04/08 00:47:39;;;;;;;19.92;13.40;;;7.60;99.30;;;;;;4971188;28;20057;-71
2023/04/08 00:50:10;;;;;;;21.13;11.57;;;7.60;98.60;;;;;;4989122;28;20581;-71
2023/04/08 00:52:38;;;;;;;17.33;12.40;;;7.60;98.50;;;;;;4976740;28;20039;-70
2023/04/08 00:55:05;;;;;;;18.48;12.52;;;7.70;98.60;;;;;;4988827;28;20733;-69
2023/04/08 00:57:34;;;;;;;18.05;12.65;;;7.40;99.00;;;;;;4971758;28;20070;-70
2023/04/08 01:00:06;;;;;;;13.82;11.27;;;7.20;99.40;;;;;;4971309;28;20053;-70
2023/04/08 01:02:58;;;;;;;15.05;11.57;;;7.20;99.80;;;;;;4956974;28;20108;-70
2023/04/08 01:05:42;;;;;;;16.60;12.35;;;7.40;99.50;;;;;;4986556;28;20046;-70
2023/04/08 01:08:11;;;;;;;16.73;11.82;;;7.40;99.70;;;;;;4988249;28;20082;-70
2023/04/08 01:10:43;;;;;;;16.10;12.35;;;7.30;99.60;;;;;;4987900;28;20053;-70
2023/04/08 01:13:17;;;;;;;16.48;12.30;;;7.30;99.50;;;;;;4956244;28;20038;-70
2023/04/08 01:15:45;;;;;;;16.40;12.52;;;7.20;99.40;;;;;;4968383;28;20058;-69
2023/04/08 01:18:14;;;;;;;14.32;11.80;;;6.80;99.90;;;;;;4955012;28;20046;-70
2023/04/08 01:20:43;;;;;;;18.20;11.85;;;6.50;99.90;;;;;;4989915;28;20046;-70
2023/04/08 01:23:37;;;;;;;18.33;13.02;;;6.40;99.90;;;;;;4970609;28;20038;-70
2023/04/08 01:26:04;;;;;;;15.68;12.20;;;6.60;99.90;;;;;;4953022;28;20053;-72
2023/04/08 01:28:34;;;;;;;16.92;11.90;;;6.90;99.90;;;;;;4967931;28;20041;-69
2023/04/08 01:31:02;;;;;;;17.33;12.25;;;7.10;99.90;;;;;;4987200;28;20410;-72
2023/04/08 01:33:31;;;;;;;15.60;11.60;;;7.10;99.90;;;;;;4989805;28;20042;-72
2023/04/08 01:36:00;;;;;;;15.48;11.48;;;7.10;99.90;;;;;;4990432;28;20050;-70
2023/04/08 01:38:30;;;;;;;21.00;12.18;;;6.90;99.90;;;;;;4992637;28;20073;-69
2023/04/08 01:40:58;;;;;;;12.98;11.25;;;6.90;99.90;;;;;;4970943;28;20045;-70
2023/04/08 01:43:27;;;;;;;17.70;11.80;;;6.90;99.90;;;;;;4992712;28;20049;-69
2023/04/08 01:45:57;;;;;;;16.17;10.45;;;6.70;99.90;;;;;;4973778;28;20057;-70
2023/04/08 01:48:28;;;;;;;15.18;10.95;;;6.70;99.90;;;;;;4991985;28;20062;-71
2023/04/08 01:50:56;;;;;;;17.40;10.93;;;7.00;99.90;;;;;;4979342;28;20073;-68
2023/04/08 01:53:24;;;;;;;13.43;10.50;;;7.00;99.90;;;;;;4990349;28;20121;-70
2023/04/08 01:56:06;;;;;;;14.45;10.10;;;7.10;99.90;;;;;;4972901;28;20042;-69
2023/04/08 01:58:41;;;;;;;16.30;11.85;;;7.20;99.90;;;;;;4990558;28;20049;-69
2023/04/08 02:01:14;;;;;;;15.85;12.30;;;6.90;99.90;;;;;;4975911;28;20034;-72
2023/04/08 02:03:43;;;;;;;16.88;12.35;;;6.80;99.90;;;;;;4971276;28;20188;-72
2023/04/08 02:06:11;;;;;;;20.60;13.88;;;6.80;99.90;;;;;;4990120;28;20031;-71
2023/04/08 02:08:38;;;;;;;26.10;15.60;;;6.70;99.90;;;;;;4973211;28;20105;-70
2023/04/08 02:11:06;;;;;;;23.70;16.65;;;6.70;99.90;;;;;;4990669;28;20045;-72
2023/04/08 02:13:33;;;;;;;25.88;16.67;;;6.70;99.90;;;;;;4988108;28;20039;-69
2023/04/08 02:16:13;;;;;;;24.13;17.58;;;6.70;99.90;;;;;;4954877;28;20061;-71
2023/04/08 02:18:47;;;;;;;26.33;16.20;;;6.80;99.90;;;;;;4989444;28;20053;-70
2023/04/08 02:21:17;;;;;;;20.70;15.27;;;6.60;99.90;;;;;;4991127;28;20136;-71
2023/04/08 02:23:49;;;;;;;19.45;15.95;;;6.50;99.90;;;;;;4974903;28;20042;-71
2023/04/08 02:26:18;;;;;;;27.95;16.45;;;6.40;99.90;;;;;;4988775;28;20121;-71
2023/04/08 02:28:48;;;;;;;23.10;15.60;;;6.40;99.90;;;;;;4972351;28;20034;-72
2023/04/08 02:31:17;;;;;;;23.13;15.43;;;6.20;99.90;;;;;;4989625;28;20049;-71
2023/04/08 02:33:45;;;;;;;21.50;15.75;;;6.20;99.90;;;;;;4975031;28;20398;-71
2023/04/08 02:36:14;;;;;;;21.67;15.63;;;6.20;99.90;;;;;;4972604;28;20051;-71
2023/04/08 02:38:46;;;;;;;22.25;16.70;;;6.20;99.90;;;;;;4971684;28;20418;-71
2023/04/08 02:41:15;;;;;;;21.85;15.13;;;6.10;99.90;;;;;;4990343;28;20471;-71
2023/04/08 02:43:42;;;;;;;23.50;15.98;;;6.20;99.90;;;;;;4958401;28;20046;-70
2023/04/08 02:46:10;;;;;;;22.55;15.15;;;6.20;99.90;;;;;;4991965;28;20050;-70
2023/04/08 02:48:40;;;;;;;22.75;15.45;;;6.10;99.90;;;;;;4974130;28;20042;-71
2023/04/08 02:51:08;;;;;;;23.85;15.32;;;6.10;99.90;;;;;;4971210;28;20038;-70
2023/04/08 02:53:36;;;;;;;21.63;15.00;;;6.10;99.90;;;;;;4977115;28;20049;-71
2023/04/08 02:56:03;;;;;;;22.02;15.38;;;6.10;99.90;;;;;;4990174;28;20035;-71
2023/04/08 02:58:31;;;;;;;27.63;15.68;;;6.20;99.90;;;;;;4974245;28;20061;-71
2023/04/08 03:00:58;;;;;;;20.98;14.93;;;6.20;99.90;;;;;;4973843;28;20458;-73
2023/04/08 03:03:30;;;;;;;22.17;15.57;;;6.20;99.90;;;;;;4971172;28;20050;-72
2023/04/08 03:05:57;;;;;;;25.73;15.43;;;6.10;99.90;;;;;;4957796;28;20069;-72
2023/04/08 03:08:25;;;;;;;24.05;15.40;;;6.10;99.90;;;;;;4957294;28;20042;-71
2023/04/08 03:10:52;;;;;;;23.83;15.52;;;6.10;99.90;;;;;;4991167;28;20041;-71
2023/04/08 03:13:22;;;;;;;22.65;15.90;;;6.00;99.90;;;;;;5013873;23;20163;-72
2023/04/08 03:15:50;;;;;;;26.50;15.95;;;6.10;99.90;;;;;;4990292;28;20456;-71
2023/04/08 03:18:17;;;;;;;21.55;15.70;;;6.10;99.90;;;;;;4975747;28;20507;-72
2023/04/08 03:20:44;;;;;;;21.90;15.70;;;6.10;99.90;;;;;;5009698;28;20092;-72
2023/04/08 03:23:12;;;;;;;22.95;16.05;;;6.20;99.90;;;;;;4993178;28;20060;-73
2023/04/08 03:25:39;;;;;;;22.35;14.68;;;6.10;99.90;;;;;;4973030;28;20053;-70
2023/04/08 03:28:06;;;;;;;21.15;14.80;;;6.10;99.90;;;;;;4971625;28;20042;-71
2023/04/08 03:30:34;;;;;;;24.08;16.20;;;6.00;99.90;;;;;;4972568;28;20383;-71
2023/04/08 03:33:04;;;;;;;24.60;15.38;;;5.80;99.90;;;;;;4973812;28;20109;-72
2023/04/08 03:35:33;;;;;;;21.60;14.82;;;5.70;99.90;;;;;;4972844;28;20073;-71
2023/04/08 03:38:01;;;;;;;23.33;16.15;;;5.80;99.90;;;;;;4970538;28;20556;-70
2023/04/08 03:40:28;;;;;;;20.15;15.18;;;5.90;99.90;;;;;;4988107;28;20034;-70
2023/04/08 03:42:55;;;;;;;21.95;14.35;;;5.70;99.90;;;;;;4990031;28;20038;-69
2023/04/08 03:45:23;;;;;;;19.38;14.80;;;5.70;99.90;;;;;;4989122;28;20045;-70
2023/04/08 03:47:50;;;;;;;21.67;15.18;;;5.90;99.90;;;;;;4973866;28;20057;-70
2023/04/08 03:50:18;;;;;;;24.35;15.77;;;6.20;99.90;;;;;;4987439;28;20038;-70
2023/04/08 03:52:45;;;;;;;22.40;15.07;;;6.10;99.90;;;;;;4990330;28;20038;-71
2023/04/08 03:55:12;;;;;;;20.25;14.30;;;6.10;99.90;;;;;;4991353;28;20402;-69
2023/04/08 03:57:40;;;;;;;19.92;14.23;;;6.10;99.90;;;;;;4972909;28;20042;-71
2023/04/08 04:00:08;;;;;;;24.98;14.82;;;6.20;99.90;;;;;;4982114;28;20044;-70
2023/04/08 04:02:35;;;;;;;18.23;13.95;;;6.00;99.90;;;;;;4969449;28;20454;-70
2023/04/08 04:05:03;;;;;;;20.65;15.15;;;6.00;99.90;;;;;;4971523;28;20391;-71
2023/04/08 04:07:30;;;;;;;26.50;15.90;;;6.00;99.90;;;;;;4980287;28;20042;-70
2023/04/08 04:09:58;;;;;;;21.58;14.75;;;5.90;99.90;;;;;;4972731;28;20038;-71
2023/04/08 04:12:25;;;;;;;23.25;15.25;;;5.70;99.90;;;;;;4989428;28;20054;-70
2023/04/08 04:14:55;;;;;;;21.30;15.20;;;5.70;99.90;;;;;;4969582;28;20053;-70
2023/04/08 04:17:22;;;;;;;20.83;15.73;;;5.50;99.90;;;;;;4988483;28;20069;-71
2023/04/08 04:19:49;;;;;;;31.77;16.35;;;5.60;99.90;;;;;;4972321;28;20042;-71
2023/04/08 04:22:20;;;;;;;22.30;15.68;;;5.70;99.90;;;;;;4973448;28;20046;-70
2023/04/08 04:24:48;;;;;;;22.92;15.75;;;5.80;99.90;;;;;;4972134;28;20400;-72
2023/04/08 04:27:16;;;;;;;21.50;15.13;;;5.80;99.90;;;;;;4989232;28;20418;-72
2023/04/08 04:29:43;;;;;;;21.73;16.25;;;5.80;99.90;;;;;;4988257;28;20418;-72
2023/04/08 04:32:16;;;;;;;21.35;15.45;;;5.80;99.90;;;;;;4972915;28;20049;-72
2023/04/08 04:34:44;;;;;;;21.35;15.02;;;5.80;99.90;;;;;;4972543;28;20086;-71
2023/04/08 04:37:15;;;;;;;25.33;15.95;;;5.80;99.90;;;;;;4970237;28;20054;-71
2023/04/08 04:39:42;;;;;;;26.27;15.85;;;5.70;99.90;;;;;;4972535;28;20050;-70
2023/04/08 04:42:14;;;;;;;24.95;14.80;;;5.50;99.90;;;;;;4987864;28;20101;-72
2023/04/08 04:44:42;;;;;;;23.95;14.40;;;5.50;99.90;;;;;;4962764;28;20537;-74
2023/04/08 04:47:09;;;;;;;24.17;15.00;;;5.60;99.90;;;;;;4987568;28;20039;-71
2023/04/08 04:49:39;;;;;;;20.27;14.85;;;5.70;99.90;;;;;;4954530;28;20054;-70
2023/04/08 04:52:06;;;;;;;19.30;14.98;;;5.70;99.90;;;;;;4971569;28;20049;-71
2023/04/08 04:54:33;;;;;;;21.17;15.45;;;5.60;99.90;;;;;;4956685;28;20473;-71
2023/04/08 04:57:02;;;;;;;20.63;15.32;;;5.50;99.90;;;;;;4971399;28;20038;-73
2023/04/08 04:59:29;;;;;;;19.55;14.65;;;5.70;99.90;;;;;;4989742;28;20050;-71
2023/04/08 05:01:56;;;;;;;22.52;14.45;;;5.80;99.90;;;;;;4953783;28;20046;-71
2023/04/08 05:04:25;;;;;;;22.92;15.85;;;5.60;99.90;;;;;;4971763;28;20096;-69
2023/04/08 05:06:52;;;;;;;22.33;15.40;;;5.70;99.90;;;;;;4987166;28;20065;-71
2023/04/08 05:09:20;;;;;;;24.25;14.63;;;5.80;99.90;;;;;;4987646;28;20068;-73
2023/04/08 05:11:47;;;;;;;20.63;14.55;;;6.00;99.90;;;;;;4954538;28;20729;-71
2023/04/08 05:14:15;;;;;;;24.48;14.32;;;6.10;99.90;;;;;;4969977;28;20414;-70
2023/04/08 05:16:42;;;;;;;22.30;15.43;;;6.00;99.90;;;;;;4971212;28;20061;-70
2023/04/08 05:19:10;;;;;;;20.23;15.88;;;6.00;99.90;;;;;;4987677;28;20464;-70
2023/04/08 05:21:37;;;;;;;23.45;15.70;;;6.20;99.90;;;;;;4971423;28;20059;-72
2023/04/08 05:24:05;;;;;;;22.75;16.33;;;6.20;99.90;;;;;;4985507;28;20050;-69
2023/04/08 05:26:32;;;;;;;18.85;15.27;;;6.30;99.90;;;;;;4969032;28;20566;-71
2023/04/08 05:28:59;;;;;;;24.67;15.65;;;6.40;99.90;;;;;;4988268;28;20482;-70
2023/04/08 05:31:32;;;;;;;20.92;15.70;;;6.40;99.90;;;;;;4988971;28;20125;-72
2023/04/08 05:33:59;;;;;;;31.13;17.20;;;6.50;99.90;;;;;;4955356;28;20053;-71
2023/04/08 05:36:30;;;;;;;25.77;15.75;;;6.60;99.90;;;;;;4983310;28;20042;-70
2023/04/08 05:38:57;;;;;;;28.33;19.13;;;6.70;99.90;;;;;;4960856;28;20517;-70
2023/04/08 05:41:30;;;;;;;85.60;49.95;;;6.70;99.90;;;;;;4961866;28;20046;-71
2023/04/08 05:43:57;;;;;;;30.67;22.27;;;6.70;99.90;;;;;;4987758;28;20057;-69
2023/04/08 05:46:24;;;;;;;56.53;35.60;;;6.60;99.90;;;;;;4968414;28;20043;-72
2023/04/08 05:48:54;;;;;;;65.45;39.42;;;6.80;99.90;;;;;;4983619;28;20050;-71
2023/04/08 05:51:25;;;;;;;33.95;24.08;;;6.90;99.90;;;;;;4986410;28;20078;-72
2023/04/08 05:53:52;;;;;;;28.15;16.80;;;7.00;99.90;;;;;;4983501;28;20034;-73
2023/04/08 05:56:19;;;;;;;21.63;14.75;;;6.70;99.90;;;;;;4985844;28;20034;-70
2023/04/08 05:58:47;;;;;;;18.30;13.85;;;6.80;99.90;;;;;;4981272;28;20160;-70
2023/04/08 06:01:14;;;;;;;17.20;14.00;;;6.90;99.90;;;;;;4984445;28;20465;-69
2023/04/08 06:03:42;;;;;;;21.02;15.02;;;6.80;99.90;;;;;;4988099;28;20038;-68
2023/04/08 06:06:12;;;;;;;22.67;14.43;;;7.10;99.90;;;;;;4971659;28;21839;-70
2023/04/08 06:08:40;;;;;;;;;;;7.20;99.90;;;;;;4971949;28;20571;-70
2023/04/08 06:11:08;;;;;;;18.42;13.50;;;7.20;99.90;;;;;;4971955;28;19933;-69
2023/04/08 06:13:37;;;;;;;18.92;14.00;;;7.40;99.90;;;;;;4966972;28;20406;-71
2023/04/08 06:16:11;;;;;;;19.23;13.07;;;7.50;99.90;;;;;;4970986;28;20487;-69
2023/04/08 06:18:39;;;;;;;20.13;13.65;;;7.70;99.90;;;;;;4984733;28;20751;-70
2023/04/08 06:21:09;;;;;;;18.42;13.15;;;7.60;99.90;;;;;;4983818;28;20038;-69
2023/04/08 06:23:36;;;;;;;24.02;13.25;;;7.70;99.90;;;;;;4985064;28;20038;-71
2023/04/08 06:26:04;;;;;;;19.42;12.80;;;7.70;99.90;;;;;;4972603;28;20064;-72
2023/04/08 06:28:31;;;;;;;18.42;13.35;;;7.70;99.90;;;;;;4992251;28;20038;-71
2023/04/08 06:31:01;;;;;;;17.95;12.77;;;7.80;99.90;;;;;;4992201;28;20061;-73
2023/04/08 06:33:28;;;;;;;20.63;13.77;;;7.80;99.90;;;;;;4959358;28;20046;-71
2023/04/08 06:36:03;;;;;;;16.45;12.77;;;8.00;99.90;;;;;;4988876;28;20041;-69
2023/04/08 06:38:31;;;;;;;18.33;12.60;;;8.10;99.90;;;;;;4990751;28;20046;-70
2023/04/08 06:41:03;;;;;;;16.70;13.25;;;8.20;99.90;;;;;;4990988;28;20054;-71
2023/04/08 06:43:34;;;;;;;19.67;12.75;;;8.20;99.90;;;;;;4965487;28;20495;-73
2023/04/08 06:46:02;;;;;;;19.38;12.90;;;8.00;99.90;;;;;;4990770;28;20039;-70
2023/04/08 06:48:29;;;;;;;18.65;12.57;;;7.80;99.90;;;;;;4988088;28;20049;-73
2023/04/08 06:50:58;;;;;;;20.40;13.10;;;7.70;99.90;;;;;;4992100;28;20051;-73
2023/04/08 06:53:28;;;;;;;26.27;12.85;;;7.80;99.90;;;;;;4992383;28;20398;-69
2023/04/08 06:55:58;;;;;;;19.30;13.05;;;7.90;99.90;;;;;;4965782;28;20569;-71
2023/04/08 06:58:28;;;;;;;19.63;12.35;;;7.90;99.90;;;;;;4957944;28;20675;-71
2023/04/08 07:00:56;;;;;;;26.17;13.27;;;8.10;99.90;;;;;;4972285;28;20097;-72
2023/04/08 07:03:23;;;;;;;19.92;13.45;;;8.00;99.90;;;;;;4989610;28;20081;-70
2023/04/08 07:05:51;;;;;;;22.90;14.45;;;8.00;99.80;;;;;;4990820;28;20039;-69
2023/04/08 07:08:22;;;;;;;73.00;40.97;;;8.30;99.90;;;;;;4974112;28;20121;-70
2023/04/08 07:10:51;;;;;;;102.95;58.88;;;8.60;99.90;;;;;;4971252;28;20054;-70
2023/04/08 07:13:22;;;;;;;106.70;58.40;;;8.90;99.90;;;;;;4970264;28;20458;-69
2023/04/08 07:15:49;;;;;;;29.25;21.08;;;9.10;99.90;;;;;;4989544;28;20058;-71
2023/04/08 07:18:17;;;;;;;28.52;17.92;;;9.10;99.70;;;;;;4987522;28;20042;-71
2023/04/08 07:20:50;;;;;;;28.15;18.35;;;9.00;99.90;;;;;;4988678;28;20434;-70
2023/04/08 07:23:20;;;;;;;23.27;16.40;;;8.90;99.90;;;;;;4955536;28;20125;-71
2023/04/08 07:28:16;;;;;;;25.27;17.05;;;8.90;99.90;;;;;;4992539;28;20371;-72
2023/04/08 07:30:46;;;;;;;28.70;17.90;;;9.00;99.90;;;;;;4995530;28;20408;-76
2023/04/08 07:33:14;;;;;;;25.83;17.98;;;8.90;99.90;;;;;;5032934;28;20049;-73
2023/04/08 07:35:42;;;;;;;27.58;16.73;;;9.00;99.90;;;;;;5009119;28;20041;-73
2023/04/08 07:38:12;;;;;;;22.00;16.50;;;8.90;99.10;;;;;;4997811;28;20492;-75
2023/04/08 07:40:43;;;;;;;32.85;16.98;;;9.00;98.70;;;;;;5010789;28;20056;-76
2023/04/08 07:43:17;;;;;;;25.77;17.52;;;9.10;98.90;;;;;;4997817;28;20042;-74
2023/04/08 07:45:45;;;;;;;22.45;15.98;;;9.30;98.30;;;;;;4994960;28;20140;-75
2023/04/08 07:48:12;;;;;;;22.30;15.32;;;9.30;98.00;;;;;;5027556;28;20033;-75
2023/04/08 07:50:40;;;;;;;21.77;16.27;;;9.30;98.00;;;;;;5030250;28;20045;-77
2023/04/08 07:53:29;;;;;;;24.48;16.90;;;9.30;97.90;;;;;;5029878;28;20061;-76
2023/04/08 07:55:56;;;;;;;23.55;15.30;;;9.40;96.70;;;;;;5012267;28;20029;-75
2023/04/08 07:58:25;;;;;;;24.45;14.90;;;9.50;96.60;;;;;;5008835;28;20049;-75
2023/04/08 08:00:53;;;;;;;24.15;15.65;;;9.60;96.50;;;;;;5028530;28;20049;-75
2023/04/08 08:03:24;;;;;;;53.97;31.60;;;9.80;98.10;;;;;;4997558;28;20045;-76
2023/04/08 08:05:52;;;;;;;36.08;22.95;;;10.10;97.60;;;;;;5013013;28;20050;-76
2023/04/08 08:08:19;;;;;;;27.30;16.67;;;10.10;97.70;;;;;;5029677;28;20079;-73
2023/04/08 08:10:46;;;;;;;25.45;15.23;;;10.20;96.40;;;;;;5025291;28;21698;-72
2023/04/08 08:13:16;;;;;;;19.67;12.93;;;10.30;95.80;;;;;;5029100;28;20045;-75
2023/04/08 08:15:51;;;;;;;17.33;12.52;;;10.30;94.60;;;;;;4993787;28;20496;-75
2023/04/08 08:18:18;;;;;;;16.17;12.75;;;10.30;93.60;;;;;;5029556;28;20041;-72
2023/04/08 08:20:49;;;;;;;18.13;12.75;;;10.30;94.00;;;;;;5012981;28;20120;-73
2023/04/08 08:23:18;;;;;;;17.65;12.70;;;10.40;93.50;;;;;;5025437;28;20747;-77
2023/04/08 08:25:45;;;;;;;17.73;12.65;;;10.50;92.60;;;;;;4978645;28;20061;-74
2023/04/08 08:28:13;;;;;;;19.08;13.52;;;10.50;92.90;;;;;;5008354;28;20518;-76
2023/04/08 08:30:40;;;;;;;22.88;13.30;;;10.60;93.40;;;;;;5009037;28;20046;-72
2023/04/08 08:33:07;;;;;;;18.60;13.05;;;10.80;93.20;;;;;;5007942;28;20061;-73
2023/04/08 08:35:34;;;;;;;18.45;13.85;;;10.90;92.80;;;;;;4989376;28;20100;-72
2023/04/08 08:38:05;;;;;;;16.23;12.40;;;11.20;92.60;;;;;;5007928;28;20045;-76
2023/04/08 08:40:34;;;;;;;14.18;11.45;;;11.10;92.10;;;;;;5016904;28;20052;-78
2023/04/08 08:43:02;;;;;;;16.95;11.90;;;11.40;91.60;;;;;;4975474;28;20046;-73
2023/04/08 08:45:30;;;;;;;18.75;11.45;;;11.40;90.90;;;;;;5006976;28;20458;-75
2023/04/08 08:47:57;;;;;;;67.82;42.75;;;11.50;89.50;;;;;;4989215;28;20038;-76
2023/04/08 08:50:27;;;;;;;23.42;17.92;;;11.80;93.00;;;;;;4990868;28;20410;-76
2023/04/08 08:52:56;;;;;;;20.23;13.57;;;12.10;91.70;;;;;;4975398;28;20042;-73
2023/04/08 08:55:23;;;;;;;36.85;23.80;;;12.30;86.10;;;;;;4991871;28;20084;-77
2023/04/08 08:58:14;;;;;;;25.42;17.48;;;12.40;91.50;;;;;;4990158;28;20049;-75
2023/04/08 09:00:43;;;;;;;131.63;71.30;;;12.80;84.20;;;;;;4983326;28;20045;-75
2023/04/08 09:03:28;;;;;;;26.00;19.52;;;12.80;87.10;;;;;;4990406;28;20064;-72
2023/04/08 09:06:00;;;;;;;52.80;34.40;;;12.90;86.50;;;;;;4975342;28;20470;-74
2023/04/08 09:08:31;;;;;;;83.45;49.08;;;12.80;82.30;;;;;;4990383;28;20049;-77
2023/04/08 09:11:14;;;;;;;23.08;14.77;;;12.90;84.70;;;;;;5002672;28;20037;-73
2023/04/08 09:13:42;;;;;;;16.23;10.35;;;12.90;81.00;;;;;;5007259;28;20040;-75
2023/04/08 09:16:18;;;;;;;15.40;10.27;;;13.30;79.90;;;;;;4991217;28;20575;-76
2023/04/08 09:18:49;;;;;;;20.58;13.27;;;13.30;78.20;;;;;;5008864;28;20041;-74
2023/04/08 09:21:23;;;;;;;16.17;10.95;;;13.50;82.10;;;;;;5007721;28;20132;-76
2023/04/08 09:23:55;;;;;;;17.80;11.50;;;13.70;82.00;;;;;;4991688;28;20437;-78
2023/04/08 09:26:36;;;;;;;12.77;8.45;;;13.80;81.40;;;;;;4982693;28;20141;-73
2023/04/08 09:29:08;;;;;;;13.52;9.18;;;13.80;75.20;;;;;;4975945;28;20038;-74
2023/04/08 09:31:59;;;;;;;13.55;9.43;;;13.60;75.80;;;;;;4995053;28;20053;-75
2023/04/08 09:35:17;;;;;;;11.90;8.77;;;14.00;77.50;;;;;;4972890;28;20042;-74
2023/04/08 09:37:53;;;;;;;14.90;10.55;;;13.80;73.50;;;;;;4983066;28;20045;-74
2023/04/08 09:40:24;;;;;;;14.15;10.07;;;13.60;78.80;;;;;;5008510;28;20037;-73
2023/04/08 09:42:55;;;;;;;13.98;8.80;;;14.10;78.60;;;;;;4982810;28;20474;-71
2023/04/08 09:45:24;;;;;;;9.80;7.90;;;13.90;74.40;;;;;;4982606;28;20125;-76
2023/04/08 09:48:11;;;;;;;11.73;8.57;;;14.30;76.00;;;;;;4990453;28;20046;-73
2023/04/08 09:50:50;;;;;;;10.52;8.50;;;14.20;73.70;;;;;;4975958;28;20050;-72
2023/04/08 09:53:34;;;;;;;11.27;8.30;;;14.60;75.00;;;;;;4984085;28;20073;-73
2023/04/08 09:56:13;;;;;;;11.32;8.40;;;14.20;73.30;;;;;;4985909;28;20049;-77
2023/04/08 09:59:11;;;;;;;11.60;8.40;;;14.50;75.60;;;;;;4991288;28;20562;-73
2023/04/08 10:01:49;;;;;;;11.30;8.85;;;14.70;73.00;;;;;;5010898;28;20105;-74
2023/04/08 10:04:22;;;;;;;14.38;9.45;;;15.10;72.90;;;;;;4984324;28;20635;-72
2023/04/08 10:06:56;;;;;;;9.02;6.97;;;15.50;73.40;;;;;;4991914;28;20104;-72
2023/04/08 10:09:26;;;;;;;11.25;6.78;;;15.60;70.80;;;;;;4990849;28;20045;-73
2023/04/08 10:11:56;;;;;;;9.77;7.88;;;15.70;68.50;;;;;;4993499;28;20386;-74
2023/04/08 10:14:27;;;;;;;11.60;6.93;;;15.50;68.60;;;;;;4976324;28;20124;-73
2023/04/08 10:17:24;;;;;;;11.27;6.75;;;15.30;66.80;;;;;;4986614;28;20038;-74
2023/04/08 10:19:57;;;;;;;11.75;7.68;;;15.60;67.60;;;;;;4976804;28;20046;-72
2023/04/08 10:22:31;;;;;;;9.55;7.25;;;15.70;69.00;;;;;;4980200;28;20046;-73
2023/04/08 10:25:18;;;;;;;11.52;7.28;;;15.40;69.70;;;;;;4993965;28;20072;-72
2023/04/08 10:27:48;;;;;;;11.27;7.47;;;15.70;70.10;;;;;;4986536;28;20402;-71
2023/04/08 10:30:28;;;;;;;10.85;7.80;;;16.00;69.30;;;;;;4978380;28;20053;-71
2023/04/08 10:32:59;;;;;;;9.73;7.07;;;15.90;70.00;;;;;;4990970;28;20636;-72
2023/04/08 10:35:51;;;;;;;9.00;7.03;;;15.90;69.50;;;;;;4993528;28;20508;-71
2023/04/08 10:38:19;;;;;;;10.90;7.03;;;16.20;70.50;;;;;;4990019;28;20104;-73
2023/04/08 10:40:48;;;;;;;11.38;7.85;;;16.70;70.80;;;;;;4994673;28;20548;-73
2023/04/08 10:43:15;;;;;;;9.45;7.18;;;16.70;68.30;;;;;;4994334;28;20041;-70
2023/04/08 10:45:50;;;;;;;10.20;7.25;;;16.10;68.40;;;;;;4990930;28;20045;-76
2023/04/08 10:48:24;;;;;;;11.30;7.20;;;16.40;69.80;;;;;;4986440;28;20425;-74
2023/04/08 10:50:55;;;;;;;9.88;7.10;;;16.20;69.20;;;;;;4990049;23;20077;-73
2023/04/08 10:53:26;;;;;;;11.40;7.80;;;16.20;67.60;;;;;;4996539;28;20050;-72
2023/04/08 10:56:02;;;;;;;10.35;7.13;;;16.50;68.00;;;;;;5002346;28;20053;-75
2023/04/08 10:58:46;;;;;;;11.00;7.03;;;17.00;68.70;;;;;;5000873;28;20038;-74
2023/04/08 11:01:16;;;;;;;9.10;5.93;;;17.00;66.60;;;;;;4983007;28;20045;-71
2023/04/08 11:03:45;;;;;;;10.52;7.90;;;17.00;66.10;;;;;;5003021;28;20053;-68
2023/04/08 11:06:12;;;;;;;9.52;5.90;;;17.00;64.80;;;;;;5005947;28;20057;-76
2023/04/08 11:08:40;;;;;;;10.65;5.68;;;17.10;64.00;;;;;;5000439;28;20050;-78
2023/04/08 11:11:11;;;;;;;8.43;5.97;;;17.70;64.70;;;;;;5003372;28;20406;-75
2023/04/08 11:13:42;;;;;;;8.63;5.40;;;17.60;61.80;;;;;;5016088;28;20066;-75
2023/04/08 11:16:23;;;;;;;9.82;5.68;;;17.60;63.30;;;;;;5001963;28;20034;-76
2023/04/08 11:18:57;;;;;;;8.23;5.60;;;18.00;63.30;;;;;;4985611;28;20502;-75
2023/04/08 11:21:28;;;;;;;8.88;5.53;;;17.50;61.40;;;;;;4981879;28;20053;-76
2023/04/08 11:23:55;;;;;;;8.73;5.65;;;17.40;61.80;;;;;;5001623;28;20049;-77
2023/04/08 11:26:32;;;;;;;10.05;6.38;;;17.00;63.30;;;;;;4998102;28;20104;-74
2023/04/08 11:29:05;;;;;;;7.93;5.10;;;17.10;64.60;;;;;;4980432;28;20616;-74
2023/04/08 11:31:35;;;;;;;7.43;5.38;;;17.40;63.80;;;;;;4977331;28;20034;-73
2023/04/08 11:34:02;;;;;;;7.97;5.47;;;17.70;62.80;;;;;;4999996;28;20054;-75
2023/04/08 11:36:35;;;;;;;7.68;5.50;;;18.20;60.00;;;;;;4993232;28;20049;-74
2023/04/08 11:39:13;;;;;;;19.80;13.27;;;18.40;58.80;;;;;;4983332;28;20058;-73
2023/04/08 11:41:43;;;;;;;19.33;13.45;;;18.60;59.70;;;;;;4988034;28;20046;-73
2023/04/08 11:44:33;;;;;;;10.93;6.72;;;18.50;58.20;;;;;;4982814;28;20125;-75
2023/04/08 11:47:03;;;;;;;9.55;6.28;;;18.40;59.80;;;;;;4983968;28;20112;-76
2023/04/08 11:49:51;;;;;;;7.40;5.68;;;18.20;59.20;;;;;;5002232;28;20497;-75
2023/04/08 11:52:21;;;;;;;7.57;5.60;;;18.00;59.30;;;;;;4989427;28;20145;-74
2023/04/08 11:54:51;;;;;;;10.55;6.63;;;17.70;60.40;;;;;;4986443;28;20050;-74
2023/04/08 11:57:31;;;;;;;44.35;29.42;;;18.10;60.60;;;;;;5006207;28;20046;-75
2023/04/08 12:00:04;;;;;;;;;;;19.10;60.10;;;;;;4988397;28;20045;-72
2023/04/08 12:02:32;;;;;;;10.70;7.68;;;19.20;58.60;;;;;;5011663;28;20312;-73
2023/04/08 12:05:02;;;;;;;7.45;5.43;;;18.20;58.10;;;;;;4983292;28;20046;-74
2023/04/08 12:07:33;;;;;;;;;;;17.70;58.20;;;;;;4987624;28;20564;-74
2023/04/08 12:10:03;;;;;;;8.43;6.03;;;17.60;58.80;;;;;;4999005;28;19922;-77
2023/04/08 12:12:33;;;;;;;10.07;5.88;;;17.60;59.40;;;;;;5002157;28;20039;-79
2023/04/08 12:15:01;;;;;;;7.60;5.55;;;17.90;58.90;;;;;;5010794;28;20049;-80
2023/04/08 12:17:30;;;;;;;10.32;5.65;;;20.00;55.70;;;;;;4971533;28;20097;-75
2023/04/08 12:19:58;;;;;;;10.63;5.55;;;22.10;52.90;;;;;;5010534;28;20136;-79
2023/04/08 12:22:27;;;;;;;7.32;5.32;;;21.60;52.50;;;;;;4984904;28;20142;-75
2023/04/08 12:24:55;;;;;;;10.60;5.93;;;20.70;54.10;;;;;;4989991;28;20149;-76
2023/04/08 12:27:25;;;;;;;10.13;6.13;;;21.10;53.30;;;;;;4994788;28;20045;-76
2023/04/08 12:29:59;;;;;;;9.55;6.43;;;20.60;54.00;;;;;;5009413;28;20064;-76
2023/04/08 12:32:27;;;;;;;10.32;6.32;;;20.70;54.00;;;;;;4999731;28;20545;-73
2023/04/08 12:34:56;;;;;;;8.43;6.18;;;20.40;54.10;;;;;;4999204;28;20129;-78
2023/04/08 12:37:24;;;;;;;8.68;6.28;;;20.70;53.70;;;;;;4999769;28;20054;-75
2023/04/08 12:39:51;;;;;;;8.25;6.25;;;21.30;52.30;;;;;;5010724;28;20038;-74
2023/04/08 12:42:20;;;;;;;10.95;6.22;;;23.60;50.40;;;;;;4983995;28;20237;-78
2023/04/08 12:44:47;;;;;;;8.05;5.90;;;24.80;48.00;;;;;;5010436;28;20034;-74
2023/04/08 12:47:14;;;;;;;10.15;6.43;;;25.00;47.20;;;;;;5001921;28;20061;-71
2023/04/08 12:49:42;;;;;;;19.27;14.57;;;25.50;46.50;;;;;;4991463;28;20042;-71
2023/04/08 12:52:16;;;;;;;20.95;17.30;;;23.40;47.10;;;;;;4993412;28;20105;-72
2023/04/08 12:54:44;;;;;;;9.68;7.47;;;20.10;53.30;;;;;;5009308;28;20042;-70
2023/04/08 12:57:11;;;;;;;8.40;5.95;;;19.50;54.70;;;;;;5007448;28;20401;-73